Time;durP1;ratioP1;P1;durP2;ratioP2;P2;SDS_P1;SDS_P2;PMS_P1;PMS_P2;Temp;Humidity;BMP_temperature;BMP_pressure;BME280_temperature;BME280_humidity;BME280_pressure;Samples;Min_cycle;Max_cycle;Signal;HPM_P1;HPM_P2
2021/03/11 00:02:16;;;;;;;40.20;22.33;;;6.80;98.40;;;;;;5033706;28;20843;-80
2021/03/11 00:04:44;;;;;;;42.08;23.90;;;6.90;98.40;;;;;;5049288;28;20052;-80
2021/03/11 00:07:10;;;;;;;42.75;22.55;;;6.90;98.40;;;;;;5015743;28;20048;-80
2021/03/11 00:09:37;;;;;;;39.40;23.50;;;6.90;98.40;;;;;;5052324;28;20052;-80
2021/03/11 00:12:06;;;;;;;45.08;24.33;;;6.90;98.30;;;;;;5029866;28;20048;-80
2021/03/11 00:14:33;;;;;;;41.72;22.88;;;6.90;98.30;;;;;;5048479;28;20055;-80
2021/03/11 00:17:00;;;;;;;40.20;23.08;;;6.90;98.30;;;;;;5031906;28;20052;-81
2021/03/11 00:19:26;;;;;;;39.90;22.40;;;6.90;98.20;;;;;;5011977;28;20033;-79
2021/03/11 00:21:53;;;;;;;36.55;21.65;;;6.90;98.20;;;;;;5048871;28;20037;-80
2021/03/11 00:24:20;;;;;;;41.70;23.00;;;6.90;98.20;;;;;;5048767;28;20053;-80
2021/03/11 00:26:46;;;;;;;39.40;22.65;;;7.00;98.20;;;;;;5050009;28;20044;-80
2021/03/11 00:29:12;;;;;;;38.05;21.85;;;7.00;98.10;;;;;;5013415;28;20827;-80
2021/03/11 00:31:39;;;;;;;38.97;22.60;;;7.00;98.00;;;;;;5037026;28;20045;-80
2021/03/11 00:34:05;;;;;;;36.03;22.05;;;7.00;98.00;;;;;;5035252;28;20033;-79
2021/03/11 00:36:32;;;;;;;38.92;22.52;;;7.00;98.00;;;;;;5050849;28;20029;-80
2021/03/11 00:38:58;;;;;;;38.80;21.73;;;7.00;98.00;;;;;;5047104;28;20080;-80
2021/03/11 00:41:25;;;;;;;35.83;21.73;;;7.00;98.00;;;;;;5051702;28;20399;-79
2021/03/11 00:43:51;;;;;;;40.65;23.90;;;7.00;98.00;;;;;;5017799;28;20403;-79
2021/03/11 00:46:19;;;;;;;37.22;22.75;;;7.00;98.00;;;;;;5050867;28;20033;-79
2021/03/11 00:48:46;;;;;;;38.17;22.65;;;7.00;97.90;;;;;;5048561;28;20048;-79
2021/03/11 00:51:12;;;;;;;32.72;20.58;;;7.10;98.00;;;;;;5031350;28;20047;-80
2021/03/11 00:53:39;;;;;;;36.65;21.42;;;7.00;97.90;;;;;;5033486;28;20036;-79
2021/03/11 00:56:06;;;;;;;36.53;21.67;;;7.10;98.00;;;;;;5049360;28;20403;-80
2021/03/11 00:58:32;;;;;;;37.78;22.50;;;7.10;97.90;;;;;;5049539;28;20037;-79
2021/03/11 01:00:59;;;;;;;35.30;21.85;;;7.10;98.00;;;;;;5038943;28;20431;-80
2021/03/11 01:03:35;;;;;;;34.50;21.77;;;7.10;97.90;;;;;;5032356;28;20472;-80
2021/03/11 01:06:03;;;;;;;37.78;21.27;;;7.10;97.90;;;;;;5023105;28;20566;-79
2021/03/11 01:08:55;;;;;;;35.10;21.38;;;7.10;97.90;;;;;;5032736;28;20064;-79
2021/03/11 01:11:22;;;;;;;38.50;21.13;;;7.10;97.80;;;;;;5046439;28;20072;-79
2021/03/11 01:13:48;;;;;;;37.20;19.90;;;7.10;97.70;;;;;;5014221;28;20044;-79
2021/03/11 01:16:15;;;;;;;35.55;20.88;;;7.20;97.70;;;;;;5017718;28;20047;-80
2021/03/11 01:18:41;;;;;;;33.72;21.67;;;7.20;97.70;;;;;;5031898;28;20035;-79
2021/03/11 01:21:08;;;;;;;32.50;19.27;;;7.20;97.70;;;;;;5030571;28;20040;-80
2021/03/11 01:23:34;;;;;;;29.95;20.27;;;7.20;97.70;;;;;;5028354;28;20068;-80
2021/03/11 01:26:01;;;;;;;30.48;19.63;;;7.20;97.70;;;;;;5028017;28;20068;-80
2021/03/11 01:28:28;;;;;;;31.52;20.50;;;7.30;97.70;;;;;;5027214;28;20472;-80
2021/03/11 01:30:54;;;;;;;30.20;19.30;;;7.30;97.70;;;;;;5028253;28;20039;-80
2021/03/11 01:33:21;;;;;;;33.90;21.05;;;7.30;97.70;;;;;;5045627;28;20041;-80
2021/03/11 01:35:48;;;;;;;30.83;20.02;;;7.30;97.80;;;;;;5031308;28;20041;-80
2021/03/11 01:38:15;;;;;;;34.60;21.85;;;7.30;97.70;;;;;;5031577;28;20024;-80
2021/03/11 01:40:42;;;;;;;33.88;20.38;;;7.30;97.80;;;;;;4997341;28;20041;-80
2021/03/11 01:43:08;;;;;;;30.65;19.42;;;7.40;97.80;;;;;;5045990;28;20037;-80
2021/03/11 01:45:35;;;;;;;31.08;19.23;;;7.40;97.90;;;;;;5049360;28;20048;-80
2021/03/11 01:48:01;;;;;;;32.40;20.08;;;7.40;97.90;;;;;;5042891;28;20049;-80
2021/03/11 01:50:28;;;;;;;35.22;21.55;;;7.40;98.00;;;;;;5048423;28;20491;-80
2021/03/11 01:52:55;;;;;;;35.17;21.85;;;7.40;98.00;;;;;;5029448;28;20040;-80
2021/03/11 01:55:21;;;;;;;31.23;18.48;;;7.40;98.00;;;;;;5049091;28;20080;-80
2021/03/11 01:57:48;;;;;;;31.17;19.92;;;7.40;98.00;;;;;;5030907;28;20033;-80
2021/03/11 02:00:15;;;;;;;30.45;19.05;;;7.40;98.10;;;;;;5046720;28;20037;-80
2021/03/11 02:02:44;;;;;;;28.38;18.20;;;7.40;98.10;;;;;;5051889;28;20574;-80
2021/03/11 02:05:15;;;;;;;31.15;20.40;;;7.40;98.10;;;;;;5029542;28;20530;-80
2021/03/11 02:07:42;;;;;;;28.48;18.17;;;7.50;98.10;;;;;;5044997;28;20057;-80
2021/03/11 02:10:11;;;;;;;27.65;18.27;;;7.50;98.10;;;;;;5047395;28;20741;-80
2021/03/11 02:12:59;;;;;;;28.48;19.60;;;7.50;98.10;;;;;;5046862;28;20059;-80
2021/03/11 02:15:38;;;;;;;27.50;18.48;;;7.50;98.00;;;;;;5047999;28;20041;-80
2021/03/11 02:18:14;;;;;;;25.48;16.90;;;7.50;98.00;;;;;;5024153;28;20029;-80
2021/03/11 02:20:48;;;;;;;28.10;18.25;;;7.60;98.00;;;;;;5047736;28;20496;-80
2021/03/11 02:23:26;;;;;;;25.63;17.33;;;7.60;98.00;;;;;;5048097;28;20044;-80
2021/03/11 02:26:03;;;;;;;22.85;16.10;;;7.60;98.00;;;;;;5048664;28;20048;-80
2021/03/11 02:28:36;;;;;;;27.08;18.23;;;7.60;98.00;;;;;;5045023;28;20037;-80
2021/03/11 02:31:03;;;;;;;24.23;16.75;;;7.60;98.00;;;;;;5050289;28;20045;-80
2021/03/11 02:33:33;;;;;;;24.85;15.95;;;7.60;97.90;;;;;;5046248;28;20049;-80
2021/03/11 02:36:01;;;;;;;23.38;15.50;;;7.60;98.00;;;;;;5048615;28;20491;-80
2021/03/11 02:38:29;;;;;;;21.88;14.93;;;7.70;98.00;;;;;;5027810;28;20032;-80
2021/03/11 02:41:00;;;;;;;22.13;15.27;;;7.60;98.00;;;;;;5034223;28;20482;-80
2021/03/11 02:43:27;;;;;;;22.23;14.77;;;7.70;98.10;;;;;;5034077;28;20041;-80
2021/03/11 02:45:56;;;;;;;22.42;15.60;;;7.70;98.10;;;;;;5054379;28;20033;-80
2021/03/11 02:48:22;;;;;;;24.45;16.10;;;7.70;98.10;;;;;;5032804;28;20036;-80
2021/03/11 02:50:50;;;;;;;21.15;14.68;;;7.70;98.20;;;;;;5045899;28;20053;-80
2021/03/11 02:53:17;;;;;;;20.38;14.63;;;7.70;98.20;;;;;;5052377;28;20047;-80
2021/03/11 02:55:44;;;;;;;22.48;15.38;;;7.70;98.20;;;;;;5052242;28;20044;-80
2021/03/11 02:58:12;;;;;;;19.92;12.80;;;7.70;98.20;;;;;;5026921;28;20029;-80
2021/03/11 03:00:43;;;;;;;20.67;13.85;;;7.80;98.30;;;;;;5046594;28;20033;-80
2021/03/11 03:03:11;;;;;;;18.60;13.57;;;7.80;98.30;;;;;;5029501;28;20048;-79
2021/03/11 03:05:38;;;;;;;22.52;14.32;;;7.80;98.30;;;;;;5011215;28;20051;-80
2021/03/11 03:08:07;;;;;;;18.90;14.15;;;7.80;98.30;;;;;;5045836;28;20838;-80
2021/03/11 03:10:35;;;;;;;19.60;13.10;;;7.80;98.30;;;;;;5028653;28;20048;-80
2021/03/11 03:13:12;;;;;;;20.17;13.55;;;7.80;98.30;;;;;;5045458;28;20048;-80
2021/03/11 03:15:40;;;;;;;18.23;12.88;;;7.80;98.30;;;;;;5047749;28;20041;-80
2021/03/11 03:18:08;;;;;;;16.92;13.30;;;7.90;98.30;;;;;;5041592;28;20037;-79
2021/03/11 03:20:35;;;;;;;16.90;12.18;;;7.90;98.30;;;;;;5029871;28;20037;-80
2021/03/11 03:23:06;;;;;;;15.30;10.77;;;7.90;98.60;;;;;;5046793;28;20044;-80
2021/03/11 03:25:33;;;;;;;19.65;12.45;;;7.90;98.30;;;;;;5044998;28;20514;-79
2021/03/11 03:28:01;;;;;;;20.35;13.50;;;8.00;98.30;;;;;;5048260;28;20052;-79
2021/03/11 03:30:28;;;;;;;16.05;12.30;;;8.00;98.30;;;;;;5050459;28;20044;-78
2021/03/11 03:32:54;;;;;;;18.35;12.43;;;7.90;98.30;;;;;;5051346;28;20829;-78
2021/03/11 03:35:24;;;;;;;15.00;11.80;;;7.90;98.40;;;;;;5050925;28;20041;-78
2021/03/11 03:37:52;;;;;;;18.27;13.23;;;7.90;98.40;;;;;;5027989;28;20501;-78
2021/03/11 03:40:21;;;;;;;19.35;13.18;;;7.90;98.50;;;;;;5049143;28;20033;-78
2021/03/11 03:42:53;;;;;;;20.00;14.50;;;7.90;98.60;;;;;;5046863;28;20041;-78
2021/03/11 03:45:31;;;;;;;19.98;14.02;;;7.90;98.80;;;;;;5045215;28;20048;-78
2021/03/11 03:48:03;;;;;;;17.05;12.05;;;7.90;98.90;;;;;;5041483;28;20049;-78
2021/03/11 03:50:31;;;;;;;21.05;14.20;;;7.90;99.00;;;;;;5047870;28;20383;-78
2021/03/11 03:53:01;;;;;;;22.05;14.98;;;7.90;99.10;;;;;;5047432;28;20510;-78
2021/03/11 03:55:29;;;;;;;20.38;14.63;;;7.80;99.20;;;;;;5050359;28;20040;-79
2021/03/11 03:57:57;;;;;;;18.55;14.52;;;7.80;99.30;;;;;;5043382;28;20412;-79
2021/03/11 04:00:24;;;;;;;26.15;17.15;;;7.90;99.40;;;;;;5049976;28;20086;-78
2021/03/11 04:02:55;;;;;;;23.80;15.55;;;7.90;99.40;;;;;;5044571;28;20053;-78
2021/03/11 04:05:25;;;;;;;21.23;14.90;;;7.90;99.50;;;;;;5033353;28;20040;-79
2021/03/11 04:07:53;;;;;;;22.20;15.07;;;7.90;99.50;;;;;;5053104;28;20060;-79
2021/03/11 04:10:20;;;;;;;21.20;14.75;;;7.90;99.60;;;;;;5039848;28;20041;-79
2021/03/11 04:12:47;;;;;;;22.05;16.20;;;7.90;99.60;;;;;;5051010;28;20057;-79
2021/03/11 04:15:14;;;;;;;27.85;18.73;;;8.00;99.70;;;;;;5056277;28;20028;-79
2021/03/11 04:17:45;;;;;;;22.33;16.05;;;7.90;99.70;;;;;;5050980;28;20033;-78
2021/03/11 04:20:12;;;;;;;25.55;16.25;;;8.00;99.80;;;;;;5047132;28;20033;-79
2021/03/11 04:22:40;;;;;;;25.85;16.45;;;8.00;99.80;;;;;;5053558;28;20048;-79
2021/03/11 04:25:08;;;;;;;22.58;16.55;;;8.00;99.90;;;;;;5051223;28;20048;-79
2021/03/11 04:27:38;;;;;;;20.83;14.93;;;8.00;99.90;;;;;;5036285;28;20048;-79
2021/03/11 04:30:06;;;;;;;23.42;16.58;;;8.00;99.90;;;;;;5048752;28;20041;-79
2021/03/11 04:32:36;;;;;;;23.42;17.33;;;8.00;99.90;;;;;;5032314;28;20041;-80
2021/03/11 04:35:03;;;;;;;27.20;17.48;;;8.10;99.90;;;;;;5050034;28;20118;-80
2021/03/11 04:37:31;;;;;;;23.50;15.60;;;8.10;99.90;;;;;;5018835;28;20033;-80
2021/03/11 04:39:58;;;;;;;22.42;15.40;;;8.10;99.90;;;;;;5049745;28;20052;-80
2021/03/11 04:42:25;;;;;;;24.42;17.50;;;8.10;99.90;;;;;;5046411;28;20056;-80
2021/03/11 04:44:52;;;;;;;25.08;16.40;;;8.20;99.90;;;;;;5030899;28;20056;-80
2021/03/11 04:47:19;;;;;;;23.55;16.90;;;8.20;99.90;;;;;;5030702;28;20041;-80
2021/03/11 04:49:46;;;;;;;24.58;16.85;;;8.20;99.90;;;;;;5049268;28;20053;-80
2021/03/11 04:52:14;;;;;;;25.27;16.75;;;8.20;99.90;;;;;;5050497;28;20048;-80
2021/03/11 04:54:41;;;;;;;25.05;17.73;;;8.20;99.90;;;;;;5046638;28;20048;-80
2021/03/11 04:57:07;;;;;;;27.85;18.95;;;8.20;99.90;;;;;;5032433;28;20037;-80
2021/03/11 04:59:36;;;;;;;25.00;17.92;;;8.30;99.90;;;;;;5011769;28;20376;-80
2021/03/11 05:02:06;;;;;;;28.20;19.15;;;8.30;99.90;;;;;;5045919;28;20029;-80
2021/03/11 05:04:33;;;;;;;23.40;17.25;;;8.30;99.90;;;;;;5013597;28;20033;-80
2021/03/11 05:07:00;;;;;;;25.67;18.33;;;8.30;99.90;;;;;;5046778;28;20029;-80
2021/03/11 05:09:26;;;;;;;25.70;17.75;;;8.40;99.90;;;;;;5045415;28;20060;-80
2021/03/11 05:11:53;;;;;;;25.30;18.00;;;8.40;99.90;;;;;;5049379;28;20041;-80
2021/03/11 05:14:19;;;;;;;26.40;17.35;;;8.40;99.90;;;;;;5046508;28;20041;-80
2021/03/11 05:16:45;;;;;;;22.63;16.75;;;8.50;99.90;;;;;;5014665;28;20052;-80
2021/03/11 05:19:12;;;;;;;26.10;18.13;;;8.50;99.90;;;;;;5048110;28;20053;-80
2021/03/11 05:21:39;;;;;;;25.85;16.73;;;8.50;99.90;;;;;;5046067;28;20033;-80
2021/03/11 05:24:05;;;;;;;28.15;18.63;;;8.60;99.90;;;;;;5015250;28;20056;-81
2021/03/11 05:26:32;;;;;;;31.10;19.45;;;8.60;99.90;;;;;;5047368;28;20056;-80
2021/03/11 05:28:58;;;;;;;23.20;16.95;;;8.60;99.90;;;;;;5043901;28;20041;-81
2021/03/11 05:31:25;;;;;;;29.52;18.27;;;8.60;99.90;;;;;;5046254;28;20045;-80
2021/03/11 05:33:51;;;;;;;26.10;16.85;;;8.70;99.90;;;;;;5030578;28;20049;-82
2021/03/11 05:36:19;;;;;;;25.98;16.73;;;8.70;99.90;;;;;;4996932;28;20040;-84
2021/03/11 05:38:46;;;;;;;19.75;14.93;;;8.70;99.90;;;;;;5028849;28;20037;-80
2021/03/11 05:41:13;;;;;;;26.42;17.48;;;8.70;99.90;;;;;;5046436;28;20045;-80
2021/03/11 05:43:42;;;;;;;27.75;17.90;;;8.80;99.90;;;;;;5047202;28;20040;-77
2021/03/11 05:46:12;;;;;;;25.42;17.60;;;8.80;99.90;;;;;;5047800;28;20044;-80
2021/03/11 05:48:43;;;;;;;29.63;17.70;;;8.80;99.90;;;;;;5028197;28;20053;-80
2021/03/11 05:51:10;;;;;;;27.20;17.50;;;8.80;99.90;;;;;;5014039;28;20033;-82
2021/03/11 05:53:37;;;;;;;28.23;17.30;;;8.80;99.90;;;;;;5028619;28;20040;-83
2021/03/11 05:56:05;;;;;;;25.95;16.17;;;8.80;99.90;;;;;;5031352;28;20032;-79
2021/03/11 05:58:32;;;;;;;23.52;15.02;;;8.80;99.90;;;;;;5045293;28;20045;-80
2021/03/11 06:00:58;;;;;;;28.88;17.73;;;8.80;99.90;;;;;;5031774;28;20036;-79
2021/03/11 06:03:30;;;;;;;24.35;15.32;;;8.80;99.90;;;;;;5043891;28;20076;-80
2021/03/11 06:06:00;;;;;;;24.10;16.30;;;8.80;99.90;;;;;;5047941;28;20041;-80
2021/03/11 06:08:26;;;;;;;24.35;14.52;;;8.90;99.90;;;;;;5047448;28;20075;-80
2021/03/11 06:10:55;;;;;;;26.55;16.83;;;8.90;99.90;;;;;;5016242;28;20541;-80
2021/03/11 06:13:23;;;;;;;25.65;15.05;;;8.90;99.90;;;;;;5013167;28;20045;-82
2021/03/11 06:16:08;;;;;;;20.85;14.20;;;8.90;99.90;;;;;;5028037;28;20033;-82
2021/03/11 06:18:36;;;;;;;22.90;15.00;;;8.90;99.90;;;;;;5012353;28;20048;-82
2021/03/11 06:21:03;;;;;;;21.90;14.00;;;8.90;99.90;;;;;;5045358;28;20048;-82
2021/03/11 06:23:30;;;;;;;22.25;14.48;;;9.00;99.90;;;;;;5043276;28;20400;-82
2021/03/11 06:25:58;;;;;;;20.92;14.00;;;9.00;99.90;;;;;;5045329;28;20053;-82
2021/03/11 06:28:46;;;;;;;20.55;14.35;;;9.00;99.90;;;;;;5043395;28;20037;-83
2021/03/11 06:31:16;;;;;;;20.63;14.15;;;9.00;99.90;;;;;;5045025;28;20041;-82
2021/03/11 06:33:42;;;;;;;22.52;14.40;;;9.00;99.90;;;;;;5044202;28;20056;-81
2021/03/11 06:36:13;;;;;;;20.38;12.68;;;9.10;99.90;;;;;;4995593;28;20038;-82
2021/03/11 06:38:40;;;;;;;19.17;11.77;;;9.10;99.90;;;;;;5042838;28;20037;-81
2021/03/11 06:41:06;;;;;;;20.30;12.32;;;9.20;99.90;;;;;;5030951;28;20089;-82
2021/03/11 06:43:34;;;;;;;17.58;12.02;;;9.20;99.90;;;;;;5011612;28;20056;-82
2021/03/11 06:46:10;;;;;;;22.58;12.57;;;9.20;99.90;;;;;;5046536;28;20033;-82
2021/03/11 06:48:37;;;;;;;21.20;12.23;;;9.30;99.90;;;;;;5026849;28;20052;-82
2021/03/11 06:51:16;;;;;;;18.92;11.90;;;9.30;99.90;;;;;;5030989;28;20045;-82
2021/03/11 06:53:57;;;;;;;16.88;10.73;;;9.30;99.90;;;;;;5038204;28;20052;-82
2021/03/11 06:56:26;;;;;;;17.55;11.20;;;9.40;99.90;;;;;;5043659;28;20029;-82
2021/03/11 06:59:04;;;;;;;18.20;10.77;;;9.50;99.90;;;;;;5042840;28;20041;-83
2021/03/11 07:01:32;;;;;;;17.70;10.60;;;9.50;99.80;;;;;;5014598;28;20045;-82
2021/03/11 07:04:01;;;;;;;15.73;10.25;;;9.50;99.70;;;;;;5030092;28;20037;-82
2021/03/11 07:06:34;;;;;;;16.15;10.73;;;9.60;99.70;;;;;;5046488;28;20047;-82
2021/03/11 07:09:03;;;;;;;16.42;9.93;;;9.60;99.60;;;;;;5046745;28;20049;-82
2021/03/11 07:11:30;;;;;;;14.20;9.50;;;9.60;99.50;;;;;;5047408;28;20037;-82
2021/03/11 07:13:59;;;;;;;14.80;9.05;;;9.60;99.30;;;;;;5032038;28;20033;-82
2021/03/11 07:16:28;;;;;;;14.90;9.38;;;9.60;99.30;;;;;;5046091;28;20029;-82
2021/03/11 07:19:14;;;;;;;13.90;8.15;;;9.50;99.20;;;;;;5026374;28;20369;-82
2021/03/11 07:21:44;;;;;;;15.25;8.18;;;9.50;99.20;;;;;;5046775;28;20041;-81
2021/03/11 07:24:30;;;;;;;12.93;6.97;;;9.50;99.20;;;;;;5012350;28;20037;-82
2021/03/11 07:26:57;;;;;;;13.23;6.13;;;9.60;99.00;;;;;;5042716;28;20041;-81
2021/03/11 07:29:24;;;;;;;9.95;5.25;;;9.60;98.80;;;;;;5027998;28;20052;-82
2021/03/11 07:31:58;;;;;;;16.00;4.63;;;9.60;98.50;;;;;;5027881;28;20044;-82
2021/03/11 07:34:37;;;;;;;12.98;4.28;;;9.80;98.20;;;;;;5045364;28;20033;-82
2021/03/11 07:37:04;;;;;;;12.23;4.55;;;10.00;97.80;;;;;;5044265;28;20033;-82
2021/03/11 07:39:37;;;;;;;10.77;3.47;;;10.10;97.30;;;;;;5010205;28;20099;-80
2021/03/11 07:42:05;;;;;;;14.95;3.53;;;10.20;96.90;;;;;;4995829;28;20875;-80
2021/03/11 07:44:33;;;;;;;14.70;3.72;;;10.30;96.40;;;;;;5017655;28;20048;-80
2021/03/11 07:46:59;;;;;;;10.25;3.25;;;10.40;96.00;;;;;;5051696;28;20061;-80
2021/03/11 07:49:27;;;;;;;18.88;3.42;;;10.50;96.00;;;;;;5030203;28;20064;-81
2021/03/11 07:51:58;;;;;;;14.65;3.25;;;10.60;95.70;;;;;;5034830;28;20400;-81
2021/03/11 07:54:25;;;;;;;10.80;3.17;;;10.70;95.60;;;;;;5053091;28;20049;-81
2021/03/11 07:56:52;;;;;;;11.57;3.38;;;10.80;95.60;;;;;;4999044;28;20037;-81
2021/03/11 07:59:19;;;;;;;12.00;3.22;;;11.00;95.40;;;;;;5049911;28;20680;-81
2021/03/11 08:01:51;;;;;;;8.23;3.33;;;11.10;95.10;;;;;;5052109;28;20036;-81
2021/03/11 08:04:20;;;;;;;10.95;3.92;;;11.30;95.00;;;;;;5052588;28;20369;-80
2021/03/11 08:06:47;;;;;;;6.00;3.25;;;11.40;94.80;;;;;;5049669;28;20789;-81
2021/03/11 08:09:34;;;;;;;10.52;2.63;;;11.40;94.60;;;;;;5046523;28;20681;-81
2021/03/11 08:12:25;;;;;;;10.93;2.03;;;11.40;94.30;;;;;;5027953;28;20067;-81
2021/03/11 08:14:52;;;;;;;9.68;3.22;;;11.30;93.60;;;;;;5008796;28;20495;-81
2021/03/11 08:17:33;;;;;;;11.10;2.80;;;11.30;93.70;;;;;;5045636;28;20420;-80
2021/03/11 08:20:01;;;;;;;11.70;2.35;;;11.40;93.50;;;;;;5029804;28;20043;-81
2021/03/11 08:22:57;;;;;;;9.05;1.67;;;11.40;93.60;;;;;;5049234;28;20368;-81
2021/03/11 08:25:36;;;;;;;12.98;1.55;;;11.60;92.90;;;;;;5047510;28;20044;-81
2021/03/11 08:28:09;;;;;;;14.93;2.65;;;11.70;92.70;;;;;;5046088;28;20441;-81
2021/03/11 08:30:38;;;;;;;;;;;11.80;91.80;;;;;;5044747;28;20041;-81
2021/03/11 08:33:10;;;;;;;10.13;1.88;;;11.80;91.70;;;;;;5035341;28;19920;-81
2021/03/11 08:35:41;;;;;;;15.73;2.15;;;11.90;91.20;;;;;;5048272;28;20036;-81
2021/03/11 08:38:20;;;;;;;18.98;1.83;;;11.90;91.00;;;;;;5034484;28;20033;-81
2021/03/11 08:41:03;;;;;;;16.10;2.47;;;12.00;90.20;;;;;;5019620;28;20036;-81
2021/03/11 08:43:49;;;;;;;16.20;3.10;;;12.10;88.50;;;;;;5030722;28;20136;-81
2021/03/11 08:46:22;;;;;;;20.08;2.35;;;12.10;87.90;;;;;;4998027;28;20053;-81
2021/03/11 08:48:57;;;;;;;14.40;2.05;;;12.20;87.20;;;;;;5031307;28;20056;-81
2021/03/11 08:51:24;;;;;;;16.23;1.80;;;12.20;87.20;;;;;;5053073;28;20352;-81
2021/03/11 08:53:59;;;;;;;19.08;2.60;;;12.30;86.90;;;;;;5037750;28;20045;-81
2021/03/11 08:56:25;;;;;;;13.55;2.17;;;12.30;86.90;;;;;;5020494;28;20387;-81
2021/03/11 08:59:02;;;;;;;11.38;1.90;;;12.30;86.00;;;;;;5050066;28;20529;-81
2021/03/11 09:01:31;;;;;;;19.17;2.80;;;12.30;85.70;;;;;;5032703;28;20033;-81
2021/03/11 09:03:59;;;;;;;14.05;2.17;;;12.20;84.30;;;;;;5022966;28;20040;-81
2021/03/11 09:07:00;;;;;;;17.30;2.28;;;12.20;84.20;;;;;;5056105;28;20044;-81
2021/03/11 09:09:45;;;;;;;17.48;2.58;;;12.30;84.40;;;;;;5033696;28;20419;-81
2021/03/11 09:12:13;;;;;;;25.48;2.83;;;12.30;84.20;;;;;;5051892;28;20040;-81
2021/03/11 09:14:54;;;;;;;22.27;3.03;;;12.30;84.30;;;;;;5050175;28;20040;-81
2021/03/11 09:17:23;;;;;;;21.38;2.05;;;12.30;83.70;;;;;;5047771;28;20535;-81
2021/03/11 09:20:01;;;;;;;23.10;3.03;;;12.20;84.30;;;;;;5045109;28;20040;-82
2021/03/11 09:22:31;;;;;;;25.65;2.92;;;12.20;83.40;;;;;;5029274;28;20029;-79
2021/03/11 09:24:58;;;;;;;19.15;2.92;;;12.20;83.70;;;;;;5025992;28;20041;-84
2021/03/11 09:27:29;;;;;;;23.73;4.32;;;12.20;83.80;;;;;;5030317;28;20414;-83
2021/03/11 09:29:56;;;;;;;24.58;3.45;;;12.20;83.40;;;;;;5044984;28;20510;-83
2021/03/11 09:32:41;;;;;;;23.92;3.25;;;12.30;83.20;;;;;;5041817;28;20439;-84
2021/03/11 09:35:10;;;;;;;23.35;3.80;;;12.40;82.00;;;;;;5047463;28;20048;-84
2021/03/11 09:37:48;;;;;;;23.73;4.05;;;12.40;81.40;;;;;;5026383;28;20048;-83
2021/03/11 09:40:29;;;;;;;26.75;3.70;;;12.40;82.10;;;;;;5025814;28;20040;-83
2021/03/11 09:43:06;;;;;;;25.20;4.40;;;12.50;79.50;;;;;;5046122;28;20028;-83
2021/03/11 09:45:49;;;;;;;31.02;4.65;;;12.50;80.20;;;;;;5048727;28;20040;-82
2021/03/11 09:48:18;;;;;;;;;;;12.60;79.80;;;;;;5041250;28;20045;-83
2021/03/11 09:51:11;;;;;;;25.95;4.13;;;12.60;77.00;;;;;;5025286;28;20275;-83
2021/03/11 09:53:43;;;;;;;28.42;4.28;;;12.60;76.90;;;;;;5013170;28;20056;-83
2021/03/11 09:56:10;;;;;;;23.23;4.07;;;12.70;78.00;;;;;;5047058;28;20056;-83
2021/03/11 09:58:49;;;;;;;25.33;5.25;;;12.60;78.20;;;;;;5028507;28;20484;-83
2021/03/11 10:01:33;;;;;;;24.35;3.95;;;12.60;77.10;;;;;;5048745;28;20049;-83
2021/03/11 10:04:02;;;;;;;21.63;3.75;;;12.50;76.30;;;;;;5029140;28;20487;-83
2021/03/11 10:06:29;;;;;;;27.60;3.90;;;12.50;75.90;;;;;;5047587;28;20033;-83
2021/03/11 10:08:59;;;;;;;25.92;3.83;;;12.50;75.80;;;;;;5028204;28;20049;-83
2021/03/11 10:11:33;;;;;;;25.25;4.00;;;12.40;76.50;;;;;;5045784;28;20048;-82
2021/03/11 10:14:03;;;;;;;25.05;3.78;;;12.40;76.90;;;;;;5012097;28;20137;-83
2021/03/11 10:16:36;;;;;;;22.70;4.07;;;12.30;76.50;;;;;;5013322;28;20055;-84
2021/03/11 10:19:12;;;;;;;23.20;3.58;;;12.30;77.10;;;;;;5032505;28;20854;-83
2021/03/11 10:21:57;;;;;;;20.63;3.97;;;12.30;77.60;;;;;;5027647;28;20036;-83
2021/03/11 10:24:35;;;;;;;27.58;3.83;;;12.20;77.00;;;;;;5052830;28;20049;-83
2021/03/11 10:27:17;;;;;;;23.42;3.70;;;12.30;77.40;;;;;;5050658;28;20056;-83
2021/03/11 10:29:44;;;;;;;28.60;4.32;;;12.30;77.70;;;;;;5031110;28;20041;-83
2021/03/11 10:32:10;;;;;;;37.25;4.53;;;12.30;76.00;;;;;;5031971;28;20047;-83
2021/03/11 10:34:48;;;;;;;21.33;3.10;;;12.40;76.10;;;;;;5047258;28;20048;-83
2021/03/11 10:37:34;;;;;;;18.45;3.22;;;12.40;76.30;;;;;;5046547;28;20043;-83
2021/03/11 10:40:08;;;;;;;28.95;4.55;;;12.40;75.90;;;;;;5045819;28;20068;-82
2021/03/11 10:42:44;;;;;;;27.23;3.50;;;12.40;76.80;;;;;;5026228;28;20033;-83
2021/03/11 10:45:22;;;;;;;22.60;4.15;;;12.40;76.60;;;;;;5031533;28;20056;-83
2021/03/11 10:48:01;;;;;;;21.92;3.40;;;12.40;77.50;;;;;;5053437;28;20048;-83
2021/03/11 10:50:29;;;;;;;26.45;3.30;;;12.50;78.30;;;;;;5044319;28;20044;-83
2021/03/11 10:52:56;;;;;;;27.55;3.70;;;12.60;78.10;;;;;;5044563;28;20495;-82
2021/03/11 10:55:29;;;;;;;22.98;3.75;;;12.60;76.00;;;;;;5050727;28;20060;-83
2021/03/11 10:57:56;;;;;;;26.20;4.15;;;12.70;75.70;;;;;;5033009;28;20075;-83
2021/03/11 11:00:25;;;;;;;24.83;3.75;;;12.60;75.20;;;;;;5028979;28;20403;-83
2021/03/11 11:02:53;;;;;;;20.38;3.35;;;12.60;75.60;;;;;;5045196;28;20476;-83
2021/03/11 11:05:20;;;;;;;31.20;4.75;;;12.50;76.90;;;;;;5034447;28;20041;-83
2021/03/11 11:07:47;;;;;;;21.17;3.45;;;12.60;76.30;;;;;;5029637;28;20047;-83
2021/03/11 11:10:16;;;;;;;24.23;3.78;;;12.60;76.50;;;;;;4996367;28;20056;-82
2021/03/11 11:12:42;;;;;;;22.30;4.25;;;12.60;76.60;;;;;;5027235;28;20041;-84
2021/03/11 11:15:10;;;;;;;25.05;4.25;;;12.60;76.20;;;;;;5000557;28;20036;-83
2021/03/11 11:17:37;;;;;;;27.70;4.70;;;12.60;76.10;;;;;;5029196;28;20059;-83
2021/03/11 11:20:24;;;;;;;32.30;4.28;;;12.60;76.70;;;;;;5028542;28;20040;-83
2021/03/11 11:22:50;;;;;;;23.10;3.47;;;12.50;77.00;;;;;;5027615;28;20048;-83
2021/03/11 11:25:17;;;;;;;27.40;4.00;;;12.50;77.00;;;;;;5030878;28;20041;-82
2021/03/11 11:27:44;;;;;;;24.02;3.40;;;12.40;77.20;;;;;;5045011;28;20463;-82
2021/03/11 11:30:13;;;;;;;25.17;3.83;;;12.30;79.00;;;;;;5011802;28;20029;-83
2021/03/11 11:32:39;;;;;;;19.70;3.25;;;12.30;79.50;;;;;;5024534;28;20037;-81
2021/03/11 11:35:06;;;;;;;29.60;3.97;;;12.30;78.60;;;;;;5044839;28;20037;-82
2021/03/11 11:37:33;;;;;;;26.58;3.55;;;12.40;77.30;;;;;;5012374;28;20044;-83
2021/03/11 11:40:00;;;;;;;27.80;3.20;;;12.50;76.80;;;;;;5045477;28;20048;-88
2021/03/11 11:42:27;;;;;;;24.45;3.67;;;12.50;76.70;;;;;;5011508;28;20040;-87
2021/03/11 11:44:53;;;;;;;25.55;3.60;;;12.50;75.40;;;;;;5021422;28;20068;-84
2021/03/11 11:47:20;;;;;;;26.70;3.80;;;12.40;76.00;;;;;;5044900;28;20041;-84
2021/03/11 11:49:46;;;;;;;23.73;4.10;;;12.40;75.50;;;;;;5026462;28;20052;-83
2021/03/11 11:52:13;;;;;;;20.77;2.78;;;12.40;75.90;;;;;;5028338;28;20048;-87
2021/03/11 11:54:40;;;;;;;16.60;2.28;;;12.40;76.20;;;;;;5014115;28;20662;-84
2021/03/11 11:57:07;;;;;;;21.33;2.50;;;12.50;75.40;;;;;;5012595;28;20045;-85
2021/03/11 11:59:34;;;;;;;25.27;3.05;;;12.70;75.50;;;;;;5012767;28;20040;-83
2021/03/11 12:02:02;;;;;;;20.13;3.08;;;12.80;75.60;;;;;;5043892;28;20049;-91
2021/03/11 12:04:29;;;;;;;24.00;3.88;;;12.80;74.60;;;;;;5011428;28;20053;-83
2021/03/11 12:06:55;;;;;;;19.38;2.95;;;12.80;75.20;;;;;;5028006;28;20045;-86
2021/03/11 12:09:22;;;;;;;14.32;2.13;;;12.80;74.80;;;;;;4995788;28;20416;-82
2021/03/11 12:11:48;;;;;;;21.42;3.55;;;12.80;75.30;;;;;;5012122;28;20045;-79
2021/03/11 12:14:20;;;;;;;20.52;3.88;;;12.90;74.80;;;;;;5047539;28;20093;-86
2021/03/11 12:16:47;;;;;;;21.65;2.33;;;13.00;73.50;;;;;;5030791;28;20037;-83
2021/03/11 12:19:13;;;;;;;19.52;2.60;;;13.00;73.20;;;;;;5007817;28;20484;-87
2021/03/11 12:21:40;;;;;;;20.92;2.70;;;13.00;72.90;;;;;;4996697;28;20037;-84
2021/03/11 12:24:07;;;;;;;20.00;3.08;;;13.00;72.30;;;;;;5012075;28;20395;-85
2021/03/11 12:26:33;;;;;;;17.05;2.42;;;13.00;72.30;;;;;;5012410;28;20040;-91
2021/03/11 12:29:01;;;;;;;16.92;2.10;;;12.90;72.40;;;;;;4994909;28;20507;-86
2021/03/11 12:31:28;;;;;;;19.88;2.85;;;12.90;72.80;;;;;;4997431;28;20040;-84
2021/03/11 12:33:56;;;;;;;24.55;2.95;;;12.80;72.50;;;;;;5030778;28;20040;-85
2021/03/11 12:36:23;;;;;;;15.68;2.35;;;12.70;72.70;;;;;;5002789;28;20029;-85
2021/03/11 12:38:52;;;;;;;17.92;2.47;;;12.80;73.40;;;;;;5047451;28;20780;-84
2021/03/11 12:41:22;;;;;;;21.02;2.97;;;12.90;72.90;;;;;;5015061;28;20036;-84
2021/03/11 12:43:49;;;;;;;20.88;2.42;;;13.10;72.90;;;;;;5015296;28;20048;-86
2021/03/11 12:46:15;;;;;;;21.50;3.20;;;13.20;71.50;;;;;;5048199;28;20041;-84
2021/03/11 12:49:02;;;;;;;17.60;2.85;;;13.30;71.70;;;;;;5058709;28;20087;-85
2021/03/11 12:51:28;;;;;;;14.88;2.10;;;13.30;71.60;;;;;;5050864;28;20040;-85
2021/03/11 12:53:55;;;;;;;21.85;2.88;;;13.30;72.10;;;;;;5053281;28;20044;-85